createdAt,value
2018-12-05T05:00:09.696Z,11.03
2018-12-05T05:02:39.056Z,10.78
2018-12-05T05:05:07.152Z,10.87
2018-12-05T05:07:35.240Z,12.00
2018-12-05T05:10:03.384Z,12.90
2018-12-05T05:12:31.455Z,15.07
2018-12-05T05:14:59.543Z,19.17
2018-12-05T05:17:27.618Z,20.83
2018-12-05T05:19:55.795Z,14.13
2018-12-05T05:22:23.872Z,12.90
2018-12-05T05:24:53.000Z,12.33
2018-12-05T05:27:21.080Z,12.97
2018-12-05T05:29:49.175Z,13.60
2018-12-05T05:32:18.078Z,12.83
2018-12-05T05:34:46.184Z,11.93
2018-12-05T05:37:14.269Z,11.43
2018-12-05T05:39:42.339Z,11.77
2018-12-05T05:42:10.670Z,12.07
2018-12-05T05:44:38.868Z,12.20
2018-12-05T05:47:07.942Z,14.87
2018-12-05T05:49:36.136Z,13.83
2018-12-05T05:52:04.459Z,12.03
2018-12-05T05:54:32.545Z,13.83
2018-12-05T05:57:02.234Z,13.60
2018-12-05T05:59:30.397Z,12.87
2018-12-05T06:02:00.504Z,12.50
2018-12-05T06:04:28.599Z,13.20
2018-12-05T06:06:56.704Z,12.03
2018-12-05T06:09:24.872Z,14.07
2018-12-05T06:11:52.987Z,13.08
2018-12-05T06:14:21.242Z,15.83
2018-12-05T06:16:49.340Z,17.10
2018-12-05T06:19:27.703Z,14.87
2018-12-05T06:21:55.799Z,15.30
2018-12-05T06:24:23.943Z,16.40
2018-12-05T06:26:52.149Z,17.02
2018-12-05T06:29:20.431Z,19.10
2018-12-05T06:31:50.659Z,16.03
2018-12-05T06:34:18.736Z,18.00
2018-12-05T06:36:46.830Z,17.97
2018-12-05T06:39:14.912Z,17.62
2018-12-05T06:41:43.007Z,16.47
2018-12-05T06:44:11.118Z,17.90
2018-12-05T06:46:39.206Z,17.70
2018-12-05T06:49:09.412Z,16.73
2018-12-05T06:51:37.496Z,18.13
2018-12-05T06:54:05.584Z,15.97
2018-12-05T06:56:33.679Z,15.87
2018-12-05T06:59:01.760Z,13.80
2018-12-05T07:01:29.831Z,14.30
2018-12-05T07:03:57.930Z,14.87
2018-12-05T07:06:26.518Z,14.07
2018-12-05T07:08:54.699Z,16.23
2018-12-05T07:11:22.800Z,18.27
2018-12-05T07:13:51.047Z,17.10
2018-12-05T07:16:19.152Z,15.78
2018-12-05T07:18:47.228Z,16.80
2018-12-05T07:21:15.968Z,16.10
2018-12-05T07:23:44.479Z,16.03
2018-12-05T07:26:12.559Z,16.40
2018-12-05T07:28:40.644Z,17.03
2018-12-05T07:31:08.740Z,16.13
2018-12-05T07:33:36.840Z,17.32
2018-12-05T07:36:04.915Z,18.43
2018-12-05T07:38:33.011Z,17.47
2018-12-05T07:41:01.120Z,16.27
2018-12-05T07:43:29.940Z,14.80
2018-12-05T07:45:59.175Z,16.50
2018-12-05T07:48:27.460Z,18.23
2018-12-05T07:50:55.542Z,16.63
2018-12-05T07:53:23.632Z,16.00
2018-12-05T07:55:51.707Z,15.77
2018-12-05T07:58:19.857Z,15.00
2018-12-05T08:00:47.895Z,16.10
2018-12-05T08:03:15.964Z,15.20
2018-12-05T08:05:45.845Z,13.62
2018-12-05T08:08:13.967Z,13.43
2018-12-05T08:10:42.069Z,14.13
2018-12-05T08:13:10.158Z,13.87
2018-12-05T08:15:43.700Z,15.07
2018-12-05T08:18:11.784Z,14.93
2018-12-05T08:20:39.880Z,15.30
2018-12-05T08:23:07.972Z,15.88
2018-12-05T08:25:36.052Z,13.90
2018-12-05T08:28:04.173Z,15.03
2018-12-05T08:30:32.252Z,16.00
2018-12-05T08:33:10.611Z,15.80
2018-12-05T08:35:38.695Z,14.60
2018-12-05T08:38:08.104Z,14.45
2018-12-05T08:40:36.211Z,16.63
2018-12-05T08:43:05.302Z,15.93
2018-12-05T08:45:33.373Z,15.67
2018-12-05T08:48:05.662Z,15.13
2018-12-05T08:50:34.833Z,13.90
2018-12-05T08:53:02.923Z,16.77
2018-12-05T08:55:34.884Z,15.23
2018-12-05T08:58:02.972Z,15.17
2018-12-05T09:00:31.047Z,15.23
2018-12-05T09:02:59.127Z,17.80
2018-12-05T09:05:31.363Z,19.53
2018-12-05T09:07:59.452Z,18.37
2018-12-05T09:10:27.534Z,17.10
2018-12-05T09:12:55.612Z,17.40
2018-12-05T09:15:23.719Z,15.30
2018-12-05T09:17:51.805Z,15.33
2018-12-05T09:20:19.872Z,14.10
2018-12-05T09:22:47.973Z,14.87
2018-12-05T09:25:17.170Z,13.10
2018-12-05T09:27:46.941Z,12.65
2018-12-05T09:30:15.032Z,13.00
2018-12-05T09:32:43.328Z,13.07
2018-12-05T09:35:11.412Z,10.90
2018-12-05T09:37:39.497Z,11.30
2018-12-05T09:40:07.869Z,12.03
2018-12-05T09:42:35.963Z,10.77
2018-12-05T09:45:04.372Z,10.72
2018-12-05T09:47:32.457Z,10.60
2018-12-05T09:50:02.065Z,10.72
2018-12-05T09:52:30.144Z,9.83
2018-12-05T09:54:58.232Z,10.20
2018-12-05T09:57:26.307Z,9.57
2018-12-05T09:59:54.383Z,10.10
2018-12-05T10:02:22.552Z,10.70
2018-12-05T10:04:50.946Z,11.63
2018-12-05T10:07:19.020Z,9.78
2018-12-05T10:09:47.130Z,9.27
2018-12-05T10:12:16.952Z,10.10
2018-12-05T10:14:45.038Z,9.30
2018-12-05T10:17:13.120Z,11.63
2018-12-05T10:19:41.209Z,9.70
2018-12-05T10:22:09.303Z,10.07
